sensor_id;sensor_type;location;lat;lon;timestamp;P1;durP1;ratioP1;P2;durP2;ratioP2
13816;SDS011;6979;52.116;5.286;2022-10-30T00:00:29;8.13;;;7.27;;
13816;SDS011;6979;52.116;5.286;2022-10-30T00:02:57;7.57;;;6.70;;
13816;SDS011;6979;52.116;5.286;2022-10-30T00:05:24;7.83;;;7.03;;
13816;SDS011;6979;52.116;5.286;2022-10-30T00:07:54;7.37;;;6.07;;
13816;SDS011;6979;52.116;5.286;2022-10-30T00:10:23;9.63;;;7.23;;
13816;SDS011;6979;52.116;5.286;2022-10-30T00:12:50;7.40;;;6.60;;
13816;SDS011;6979;52.116;5.286;2022-10-30T00:15:17;8.63;;;6.73;;
13816;SDS011;6979;52.116;5.286;2022-10-30T00:17:44;8.53;;;7.03;;
13816;SDS011;6979;52.116;5.286;2022-10-30T00:20:11;8.60;;;7.17;;
13816;SDS011;6979;52.116;5.286;2022-10-30T00:22:38;11.80;;;7.63;;
13816;SDS011;6979;52.116;5.286;2022-10-30T00:25:08;10.63;;;7.23;;
13816;SDS011;6979;52.116;5.286;2022-10-30T00:27:35;9.27;;;6.67;;
13816;SDS011;6979;52.116;5.286;2022-10-30T00:30:02;8.60;;;7.67;;
13816;SDS011;6979;52.116;5.286;2022-10-30T00:32:29;7.47;;;6.50;;
13816;SDS011;6979;52.116;5.286;2022-10-30T00:34:56;9.63;;;7.77;;
13816;SDS011;6979;52.116;5.286;2022-10-30T00:37:23;7.93;;;7.13;;
13816;SDS011;6979;52.116;5.286;2022-10-30T00:39:50;8.87;;;7.27;;
13816;SDS011;6979;52.116;5.286;2022-10-30T00:42:18;7.43;;;6.63;;
13816;SDS011;6979;52.116;5.286;2022-10-30T00:44:46;7.83;;;6.70;;
13816;SDS011;6979;52.116;5.286;2022-10-30T00:47:18;7.67;;;6.97;;
13816;SDS011;6979;52.116;5.286;2022-10-30T00:49:58;7.30;;;6.47;;
13816;SDS011;6979;52.116;5.286;2022-10-30T00:52:28;8.07;;;6.50;;
13816;SDS011;6979;52.116;5.286;2022-10-30T00:55:00;9.43;;;7.27;;
13816;SDS011;6979;52.116;5.286;2022-10-30T00:57:32;9.63;;;8.17;;
13816;SDS011;6979;52.116;5.286;2022-10-30T01:00:00;8.47;;;7.00;;
13816;SDS011;6979;52.116;5.286;2022-10-30T01:02:28;10.30;;;7.93;;
13816;SDS011;6979;52.116;5.286;2022-10-30T01:04:55;12.03;;;8.30;;
13816;SDS011;6979;52.116;5.286;2022-10-30T01:07:22;8.17;;;7.23;;
13816;SDS011;6979;52.116;5.286;2022-10-30T01:09:49;8.23;;;7.30;;
13816;SDS011;6979;52.116;5.286;2022-10-30T01:12:16;10.13;;;7.07;;
13816;SDS011;6979;52.116;5.286;2022-10-30T01:14:49;11.17;;;7.43;;
13816;SDS011;6979;52.116;5.286;2022-10-30T01:17:24;11.43;;;7.50;;
13816;SDS011;6979;52.116;5.286;2022-10-30T01:20:16;7.60;;;6.93;;
13816;SDS011;6979;52.116;5.286;2022-10-30T01:22:59;14.53;;;7.43;;
13816;SDS011;6979;52.116;5.286;2022-10-30T01:25:39;9.77;;;7.33;;
13816;SDS011;6979;52.116;5.286;2022-10-30T01:28:19;8.40;;;7.10;;
13816;SDS011;6979;52.116;5.286;2022-10-30T01:31:10;12.97;;;7.43;;
13816;SDS011;6979;52.116;5.286;2022-10-30T01:33:48;8.33;;;7.40;;
13816;SDS011;6979;52.116;5.286;2022-10-30T01:36:28;7.73;;;7.10;;
13816;SDS011;6979;52.116;5.286;2022-10-30T01:39:04;8.80;;;7.03;;
13816;SDS011;6979;52.116;5.286;2022-10-30T01:41:36;8.03;;;7.23;;
13816;SDS011;6979;52.116;5.286;2022-10-30T01:44:04;11.07;;;7.40;;
13816;SDS011;6979;52.116;5.286;2022-10-30T01:46:40;9.07;;;7.27;;
13816;SDS011;6979;52.116;5.286;2022-10-30T01:49:27;7.73;;;6.90;;
13816;SDS011;6979;52.116;5.286;2022-10-30T01:52:04;15.27;;;7.37;;
13816;SDS011;6979;52.116;5.286;2022-10-30T01:54:39;7.97;;;6.93;;
13816;SDS011;6979;52.116;5.286;2022-10-30T01:57:15;12.83;;;7.93;;
13816;SDS011;6979;52.116;5.286;2022-10-30T01:59:50;7.53;;;6.63;;
13816;SDS011;6979;52.116;5.286;2022-10-30T02:02:21;8.70;;;7.73;;
13816;SDS011;6979;52.116;5.286;2022-10-30T02:04:48;6.43;;;5.83;;
13816;SDS011;6979;52.116;5.286;2022-10-30T02:07:16;10.13;;;7.43;;
13816;SDS011;6979;52.116;5.286;2022-10-30T02:09:47;6.77;;;6.13;;
13816;SDS011;6979;52.116;5.286;2022-10-30T02:12:16;9.97;;;7.97;;
13816;SDS011;6979;52.116;5.286;2022-10-30T02:14:46;9.67;;;7.43;;
13816;SDS011;6979;52.116;5.286;2022-10-30T02:17:15;8.00;;;7.13;;
13816;SDS011;6979;52.116;5.286;2022-10-30T02:19:44;11.13;;;7.50;;
13816;SDS011;6979;52.116;5.286;2022-10-30T02:22:12;7.40;;;6.80;;
13816;SDS011;6979;52.116;5.286;2022-10-30T02:24:42;9.10;;;7.33;;
13816;SDS011;6979;52.116;5.286;2022-10-30T02:27:09;8.17;;;6.97;;
13816;SDS011;6979;52.116;5.286;2022-10-30T02:29:38;11.63;;;7.07;;
13816;SDS011;6979;52.116;5.286;2022-10-30T02:32:05;10.03;;;7.00;;
13816;SDS011;6979;52.116;5.286;2022-10-30T02:34:33;7.87;;;7.00;;
13816;SDS011;6979;52.116;5.286;2022-10-30T02:37:00;8.67;;;7.67;;
13816;SDS011;6979;52.116;5.286;2022-10-30T02:39:29;8.53;;;7.57;;
13816;SDS011;6979;52.116;5.286;2022-10-30T02:41:55;7.20;;;6.53;;
13816;SDS011;6979;52.116;5.286;2022-10-30T02:44:22;14.67;;;7.83;;
13816;SDS011;6979;52.116;5.286;2022-10-30T02:46:49;7.90;;;7.13;;
13816;SDS011;6979;52.116;5.286;2022-10-30T02:49:16;7.60;;;6.83;;
13816;SDS011;6979;52.116;5.286;2022-10-30T02:51:43;8.03;;;7.23;;
13816;SDS011;6979;52.116;5.286;2022-10-30T02:54:11;7.83;;;6.97;;
13816;SDS011;6979;52.116;5.286;2022-10-30T02:56:40;7.57;;;6.90;;
13816;SDS011;6979;52.116;5.286;2022-10-30T02:59:07;8.73;;;6.00;;
13816;SDS011;6979;52.116;5.286;2022-10-30T03:01:33;9.03;;;7.17;;
13816;SDS011;6979;52.116;5.286;2022-10-30T03:04:00;7.73;;;6.93;;
13816;SDS011;6979;52.116;5.286;2022-10-30T03:06:27;7.77;;;6.57;;
13816;SDS011;6979;52.116;5.286;2022-10-30T03:08:56;7.80;;;7.03;;
13816;SDS011;6979;52.116;5.286;2022-10-30T03:11:23;7.60;;;6.90;;
13816;SDS011;6979;52.116;5.286;2022-10-30T03:13:55;8.03;;;7.23;;
13816;SDS011;6979;52.116;5.286;2022-10-30T03:16:23;10.80;;;7.57;;
13816;SDS011;6979;52.116;5.286;2022-10-30T03:18:53;7.70;;;6.97;;
13816;SDS011;6979;52.116;5.286;2022-10-30T03:21:22;7.93;;;7.00;;
13816;SDS011;6979;52.116;5.286;2022-10-30T03:23:50;7.83;;;7.07;;
13816;SDS011;6979;52.116;5.286;2022-10-30T03:26:19;8.57;;;6.77;;
13816;SDS011;6979;52.116;5.286;2022-10-30T03:28:50;11.83;;;7.37;;
13816;SDS011;6979;52.116;5.286;2022-10-30T03:31:19;8.33;;;6.87;;
13816;SDS011;6979;52.116;5.286;2022-10-30T03:33:54;8.27;;;7.43;;
13816;SDS011;6979;52.116;5.286;2022-10-30T03:36:21;8.87;;;7.37;;
13816;SDS011;6979;52.116;5.286;2022-10-30T03:38:50;8.80;;;7.53;;
13816;SDS011;6979;52.116;5.286;2022-10-30T03:41:18;9.90;;;6.67;;
13816;SDS011;6979;52.116;5.286;2022-10-30T03:43:45;8.60;;;7.70;;
13816;SDS011;6979;52.116;5.286;2022-10-30T03:46:12;9.37;;;8.07;;
13816;SDS011;6979;52.116;5.286;2022-10-30T03:48:40;8.10;;;7.13;;
13816;SDS011;6979;52.116;5.286;2022-10-30T03:51:07;8.03;;;7.23;;
13816;SDS011;6979;52.116;5.286;2022-10-30T03:53:35;8.80;;;7.57;;
13816;SDS011;6979;52.116;5.286;2022-10-30T03:56:02;8.30;;;7.50;;
13816;SDS011;6979;52.116;5.286;2022-10-30T03:58:42;11.53;;;8.07;;
13816;SDS011;6979;52.116;5.286;2022-10-30T04:01:11;8.57;;;7.10;;
13816;SDS011;6979;52.116;5.286;2022-10-30T04:03:42;10.77;;;7.23;;
13816;SDS011;6979;52.116;5.286;2022-10-30T04:06:10;9.10;;;7.77;;
13816;SDS011;6979;52.116;5.286;2022-10-30T04:08:37;8.73;;;7.93;;
13816;SDS011;6979;52.116;5.286;2022-10-30T04:11:04;9.37;;;8.40;;
13816;SDS011;6979;52.116;5.286;2022-10-30T04:13:31;9.43;;;7.77;;
13816;SDS011;6979;52.116;5.286;2022-10-30T04:15:59;8.03;;;7.40;;
13816;SDS011;6979;52.116;5.286;2022-10-30T04:18:26;8.90;;;7.67;;
13816;SDS011;6979;52.116;5.286;2022-10-30T04:20:54;9.50;;;7.73;;
13816;SDS011;6979;52.116;5.286;2022-10-30T04:23:24;9.20;;;8.13;;
13816;SDS011;6979;52.116;5.286;2022-10-30T04:25:51;7.67;;;6.87;;
13816;SDS011;6979;52.116;5.286;2022-10-30T04:28:18;8.83;;;6.97;;
13816;SDS011;6979;52.116;5.286;2022-10-30T04:30:47;8.70;;;7.67;;
13816;SDS011;6979;52.116;5.286;2022-10-30T04:33:15;9.67;;;7.03;;
13816;SDS011;6979;52.116;5.286;2022-10-30T04:35:48;10.07;;;6.90;;
13816;SDS011;6979;52.116;5.286;2022-10-30T04:38:19;7.70;;;6.97;;
13816;SDS011;6979;52.116;5.286;2022-10-30T04:40:47;8.57;;;7.70;;
13816;SDS011;6979;52.116;5.286;2022-10-30T04:43:14;8.57;;;7.70;;
13816;SDS011;6979;52.116;5.286;2022-10-30T04:45:45;9.87;;;8.53;;
13816;SDS011;6979;52.116;5.286;2022-10-30T04:48:13;10.47;;;7.50;;
13816;SDS011;6979;52.116;5.286;2022-10-30T04:50:42;11.87;;;8.17;;
13816;SDS011;6979;52.116;5.286;2022-10-30T04:53:13;8.80;;;7.43;;
13816;SDS011;6979;52.116;5.286;2022-10-30T04:55:42;8.07;;;7.20;;
13816;SDS011;6979;52.116;5.286;2022-10-30T04:58:11;8.80;;;6.87;;
13816;SDS011;6979;52.116;5.286;2022-10-30T05:00:41;8.87;;;7.33;;
13816;SDS011;6979;52.116;5.286;2022-10-30T05:03:14;10.90;;;7.63;;
13816;SDS011;6979;52.116;5.286;2022-10-30T05:05:45;9.20;;;7.87;;
13816;SDS011;6979;52.116;5.286;2022-10-30T05:08:13;8.53;;;7.27;;
13816;SDS011;6979;52.116;5.286;2022-10-30T05:10:42;8.33;;;7.63;;
13816;SDS011;6979;52.116;5.286;2022-10-30T05:13:12;8.53;;;7.67;;
13816;SDS011;6979;52.116;5.286;2022-10-30T05:15:40;9.13;;;8.07;;
13816;SDS011;6979;52.116;5.286;2022-10-30T05:18:07;9.03;;;8.13;;
13816;SDS011;6979;52.116;5.286;2022-10-30T05:20:34;9.87;;;8.07;;
13816;SDS011;6979;52.116;5.286;2022-10-30T05:23:01;8.30;;;7.33;;
13816;SDS011;6979;52.116;5.286;2022-10-30T05:25:29;9.53;;;8.63;;
13816;SDS011;6979;52.116;5.286;2022-10-30T05:28:00;9.73;;;8.37;;
13816;SDS011;6979;52.116;5.286;2022-10-30T05:30:34;8.87;;;8.07;;
13816;SDS011;6979;52.116;5.286;2022-10-30T05:33:05;7.70;;;7.00;;
13816;SDS011;6979;52.116;5.286;2022-10-30T05:35:34;10.80;;;8.87;;
13816;SDS011;6979;52.116;5.286;2022-10-30T05:38:04;7.93;;;7.13;;
13816;SDS011;6979;52.116;5.286;2022-10-30T05:40:32;8.17;;;7.40;;
13816;SDS011;6979;52.116;5.286;2022-10-30T05:43:01;9.93;;;7.90;;
13816;SDS011;6979;52.116;5.286;2022-10-30T05:45:29;9.07;;;7.63;;
13816;SDS011;6979;52.116;5.286;2022-10-30T05:47:58;11.07;;;8.83;;
13816;SDS011;6979;52.116;5.286;2022-10-30T05:50:30;8.00;;;7.20;;
13816;SDS011;6979;52.116;5.286;2022-10-30T05:53:18;9.07;;;8.07;;
13816;SDS011;6979;52.116;5.286;2022-10-30T05:55:48;8.77;;;7.63;;
13816;SDS011;6979;52.116;5.286;2022-10-30T05:58:21;9.47;;;8.03;;
13816;SDS011;6979;52.116;5.286;2022-10-30T06:00:49;10.87;;;8.33;;
13816;SDS011;6979;52.116;5.286;2022-10-30T06:03:27;9.40;;;8.40;;
13816;SDS011;6979;52.116;5.286;2022-10-30T06:05:54;11.33;;;10.23;;
13816;SDS011;6979;52.116;5.286;2022-10-30T06:08:21;9.43;;;8.53;;
13816;SDS011;6979;52.116;5.286;2022-10-30T06:10:52;9.77;;;8.73;;
13816;SDS011;6979;52.116;5.286;2022-10-30T06:13:25;9.00;;;7.97;;
13816;SDS011;6979;52.116;5.286;2022-10-30T06:15:59;10.17;;;8.20;;
13816;SDS011;6979;52.116;5.286;2022-10-30T06:18:40;10.17;;;9.17;;
13816;SDS011;6979;52.116;5.286;2022-10-30T06:21:09;9.27;;;8.20;;
13816;SDS011;6979;52.116;5.286;2022-10-30T06:23:49;10.27;;;8.57;;
13816;SDS011;6979;52.116;5.286;2022-10-30T06:26:33;11.97;;;9.07;;
13816;SDS011;6979;52.116;5.286;2022-10-30T06:29:06;9.13;;;8.30;;
13816;SDS011;6979;52.116;5.286;2022-10-30T06:31:33;9.17;;;8.23;;
13816;SDS011;6979;52.116;5.286;2022-10-30T06:34:01;8.57;;;7.73;;
13816;SDS011;6979;52.116;5.286;2022-10-30T06:36:30;10.60;;;9.20;;
13816;SDS011;6979;52.116;5.286;2022-10-30T06:38:57;9.30;;;7.03;;
13816;SDS011;6979;52.116;5.286;2022-10-30T06:41:30;9.70;;;8.43;;
13816;SDS011;6979;52.116;5.286;2022-10-30T06:44:22;8.37;;;7.47;;
13816;SDS011;6979;52.116;5.286;2022-10-30T06:46:51;8.40;;;7.60;;
13816;SDS011;6979;52.116;5.286;2022-10-30T06:49:18;9.30;;;8.23;;
13816;SDS011;6979;52.116;5.286;2022-10-30T06:51:45;8.90;;;8.10;;
13816;SDS011;6979;52.116;5.286;2022-10-30T06:54:12;9.57;;;7.90;;
13816;SDS011;6979;52.116;5.286;2022-10-30T06:56:39;9.40;;;8.60;;
13816;SDS011;6979;52.116;5.286;2022-10-30T06:59:06;8.97;;;8.07;;
13816;SDS011;6979;52.116;5.286;2022-10-30T07:01:43;11.63;;;9.57;;
13816;SDS011;6979;52.116;5.286;2022-10-30T07:04:15;10.50;;;9.33;;
13816;SDS011;6979;52.116;5.286;2022-10-30T07:06:42;9.50;;;8.53;;
13816;SDS011;6979;52.116;5.286;2022-10-30T07:09:09;9.97;;;8.97;;
13816;SDS011;6979;52.116;5.286;2022-10-30T07:11:39;9.20;;;8.20;;
13816;SDS011;6979;52.116;5.286;2022-10-30T07:14:37;9.43;;;8.53;;
13816;SDS011;6979;52.116;5.286;2022-10-30T07:17:14;9.77;;;8.90;;
13816;SDS011;6979;52.116;5.286;2022-10-30T07:19:46;9.27;;;8.47;;
13816;SDS011;6979;52.116;5.286;2022-10-30T07:22:14;9.50;;;8.60;;
13816;SDS011;6979;52.116;5.286;2022-10-30T07:24:45;10.57;;;8.90;;
13816;SDS011;6979;52.116;5.286;2022-10-30T07:27:12;12.53;;;9.27;;
13816;SDS011;6979;52.116;5.286;2022-10-30T07:29:53;9.37;;;8.47;;
13816;SDS011;6979;52.116;5.286;2022-10-30T07:32:27;10.23;;;9.23;;
13816;SDS011;6979;52.116;5.286;2022-10-30T07:35:08;11.77;;;8.90;;
13816;SDS011;6979;52.116;5.286;2022-10-30T07:37:55;10.30;;;9.17;;
13816;SDS011;6979;52.116;5.286;2022-10-30T07:40:36;10.00;;;8.60;;
13816;SDS011;6979;52.116;5.286;2022-10-30T07:43:14;10.00;;;9.03;;
13816;SDS011;6979;52.116;5.286;2022-10-30T07:46:13;9.17;;;8.33;;
13816;SDS011;6979;52.116;5.286;2022-10-30T07:49:17;10.80;;;9.70;;
13816;SDS011;6979;52.116;5.286;2022-10-30T07:51:48;10.57;;;9.00;;
13816;SDS011;6979;52.116;5.286;2022-10-30T07:54:16;11.50;;;9.20;;
13816;SDS011;6979;52.116;5.286;2022-10-30T07:56:43;12.63;;;9.40;;
13816;SDS011;6979;52.116;5.286;2022-10-30T07:59:28;10.73;;;9.03;;
13816;SDS011;6979;52.116;5.286;2022-10-30T08:02:13;9.20;;;8.30;;
13816;SDS011;6979;52.116;5.286;2022-10-30T08:04:58;10.33;;;9.33;;
13816;SDS011;6979;52.116;5.286;2022-10-30T08:07:57;12.73;;;9.13;;
13816;SDS011;6979;52.116;5.286;2022-10-30T08:10:24;10.13;;;9.23;;
13816;SDS011;6979;52.116;5.286;2022-10-30T08:12:51;9.97;;;9.07;;
13816;SDS011;6979;52.116;5.286;2022-10-30T08:15:18;10.33;;;9.40;;
13816;SDS011;6979;52.116;5.286;2022-10-30T08:17:46;13.33;;;8.73;;
13816;SDS011;6979;52.116;5.286;2022-10-30T08:20:16;11.60;;;10.43;;
13816;SDS011;6979;52.116;5.286;2022-10-30T08:22:45;10.80;;;9.63;;
13816;SDS011;6979;52.116;5.286;2022-10-30T08:25:13;10.50;;;9.50;;
13816;SDS011;6979;52.116;5.286;2022-10-30T08:27:48;12.70;;;9.67;;
13816;SDS011;6979;52.116;5.286;2022-10-30T08:30:20;11.57;;;10.17;;
13816;SDS011;6979;52.116;5.286;2022-10-30T08:32:50;10.73;;;9.63;;
13816;SDS011;6979;52.116;5.286;2022-10-30T08:35:47;11.03;;;9.93;;
13816;SDS011;6979;52.116;5.286;2022-10-30T08:38:15;11.40;;;9.97;;
13816;SDS011;6979;52.116;5.286;2022-10-30T08:40:43;11.93;;;10.40;;
13816;SDS011;6979;52.116;5.286;2022-10-30T08:43:11;12.67;;;9.33;;
13816;SDS011;6979;52.116;5.286;2022-10-30T08:45:39;10.87;;;9.77;;
13816;SDS011;6979;52.116;5.286;2022-10-30T08:48:10;9.93;;;9.00;;
13816;SDS011;6979;52.116;5.286;2022-10-30T08:50:40;11.57;;;9.40;;
13816;SDS011;6979;52.116;5.286;2022-10-30T08:53:09;10.33;;;8.83;;
13816;SDS011;6979;52.116;5.286;2022-10-30T08:55:37;10.37;;;9.10;;
13816;SDS011;6979;52.116;5.286;2022-10-30T08:58:09;13.07;;;11.73;;
13816;SDS011;6979;52.116;5.286;2022-10-30T09:00:36;13.70;;;10.37;;
13816;SDS011;6979;52.116;5.286;2022-10-30T09:03:09;11.43;;;10.23;;
13816;SDS011;6979;52.116;5.286;2022-10-30T09:05:41;13.23;;;9.40;;
13816;SDS011;6979;52.116;5.286;2022-10-30T09:08:32;10.20;;;9.20;;
13816;SDS011;6979;52.116;5.286;2022-10-30T09:11:09;11.43;;;9.07;;
13816;SDS011;6979;52.116;5.286;2022-10-30T09:13:36;12.40;;;9.43;;
13816;SDS011;6979;52.116;5.286;2022-10-30T09:16:05;9.30;;;8.50;;
13816;SDS011;6979;52.116;5.286;2022-10-30T09:18:34;7.33;;;6.73;;
13816;SDS011;6979;52.116;5.286;2022-10-30T09:21:01;7.57;;;6.90;;
13816;SDS011;6979;52.116;5.286;2022-10-30T09:23:30;7.47;;;6.77;;
13816;SDS011;6979;52.116;5.286;2022-10-30T09:26:18;9.30;;;6.90;;
13816;SDS011;6979;52.116;5.286;2022-10-30T09:28:50;9.80;;;7.80;;
13816;SDS011;6979;52.116;5.286;2022-10-30T09:31:45;11.53;;;6.63;;
13816;SDS011;6979;52.116;5.286;2022-10-30T09:34:15;9.37;;;7.13;;
13816;SDS011;6979;52.116;5.286;2022-10-30T09:36:53;8.27;;;7.17;;
13816;SDS011;6979;52.116;5.286;2022-10-30T09:39:21;10.30;;;6.77;;
13816;SDS011;6979;52.116;5.286;2022-10-30T09:44:51;6.53;;;5.83;;
13816;SDS011;6979;52.116;5.286;2022-10-30T09:47:29;8.13;;;7.33;;
13816;SDS011;6979;52.116;5.286;2022-10-30T09:52:56;6.10;;;5.53;;
13816;SDS011;6979;52.116;5.286;2022-10-30T09:55:38;7.33;;;6.67;;
13816;SDS011;6979;52.116;5.286;2022-10-30T09:58:13;8.57;;;6.63;;
13816;SDS011;6979;52.116;5.286;2022-10-30T10:00:49;7.07;;;6.37;;
13816;SDS011;6979;52.116;5.286;2022-10-30T10:03:30;6.97;;;6.27;;
13816;SDS011;6979;52.116;5.286;2022-10-30T10:06:22;7.23;;;6.50;;
13816;SDS011;6979;52.116;5.286;2022-10-30T10:09:13;6.70;;;5.97;;
13816;SDS011;6979;52.116;5.286;2022-10-30T10:12:03;6.70;;;5.70;;
13816;SDS011;6979;52.116;5.286;2022-10-30T10:14:36;7.50;;;6.57;;
13816;SDS011;6979;52.116;5.286;2022-10-30T10:17:09;6.37;;;5.73;;
13816;SDS011;6979;52.116;5.286;2022-10-30T10:19:39;7.70;;;6.03;;
13816;SDS011;6979;52.116;5.286;2022-10-30T10:22:22;9.00;;;8.13;;
13816;SDS011;6979;52.116;5.286;2022-10-30T10:24:51;9.47;;;7.40;;
13816;SDS011;6979;52.116;5.286;2022-10-30T10:27:22;8.47;;;7.03;;
13816;SDS011;6979;52.116;5.286;2022-10-30T10:30:02;6.77;;;6.17;;
13816;SDS011;6979;52.116;5.286;2022-10-30T10:32:40;8.07;;;6.33;;
13816;SDS011;6979;52.116;5.286;2022-10-30T10:35:22;7.90;;;6.20;;
13816;SDS011;6979;52.116;5.286;2022-10-30T10:38:02;8.67;;;6.13;;
13816;SDS011;6979;52.116;5.286;2022-10-30T10:40:39;7.53;;;6.80;;
13816;SDS011;6979;52.116;5.286;2022-10-30T10:43:18;8.70;;;6.73;;
13816;SDS011;6979;52.116;5.286;2022-10-30T10:45:58;6.20;;;5.60;;
13816;SDS011;6979;52.116;5.286;2022-10-30T10:48:51;8.87;;;6.40;;
13816;SDS011;6979;52.116;5.286;2022-10-30T10:51:30;7.37;;;6.67;;
13816;SDS011;6979;52.116;5.286;2022-10-30T10:54:03;6.93;;;6.20;;
13816;SDS011;6979;52.116;5.286;2022-10-30T10:56:37;9.90;;;6.30;;
13816;SDS011;6979;52.116;5.286;2022-10-30T10:59:11;6.30;;;5.63;;
13816;SDS011;6979;52.116;5.286;2022-10-30T11:01:47;6.23;;;5.53;;
13816;SDS011;6979;52.116;5.286;2022-10-30T11:04:25;7.70;;;6.80;;
13816;SDS011;6979;52.116;5.286;2022-10-30T11:06:57;8.03;;;6.97;;
13816;SDS011;6979;52.116;5.286;2022-10-30T11:09:24;9.27;;;6.77;;
13816;SDS011;6979;52.116;5.286;2022-10-30T11:11:52;7.67;;;6.37;;
13816;SDS011;6979;52.116;5.286;2022-10-30T11:14:20;6.17;;;5.63;;
13816;SDS011;6979;52.116;5.286;2022-10-30T11:17:02;8.07;;;7.17;;
13816;SDS011;6979;52.116;5.286;2022-10-30T11:19:33;10.00;;;6.20;;
13816;SDS011;6979;52.116;5.286;2022-10-30T11:22:00;10.47;;;7.23;;
13816;SDS011;6979;52.116;5.286;2022-10-30T11:24:29;6.33;;;5.77;;
13816;SDS011;6979;52.116;5.286;2022-10-30T11:26:58;7.23;;;6.03;;
13816;SDS011;6979;52.116;5.286;2022-10-30T11:29:46;7.13;;;5.83;;
13816;SDS011;6979;52.116;5.286;2022-10-30T11:32:18;7.80;;;6.20;;
13816;SDS011;6979;52.116;5.286;2022-10-30T11:34:50;8.03;;;6.53;;
13816;SDS011;6979;52.116;5.286;2022-10-30T11:37:28;7.43;;;6.10;;
13816;SDS011;6979;52.116;5.286;2022-10-30T11:40:03;7.40;;;6.30;;
13816;SDS011;6979;52.116;5.286;2022-10-30T11:42:32;7.67;;;6.37;;
13816;SDS011;6979;52.116;5.286;2022-10-30T11:45:00;7.47;;;5.53;;
13816;SDS011;6979;52.116;5.286;2022-10-30T11:47:33;8.20;;;6.33;;
13816;SDS011;6979;52.116;5.286;2022-10-30T11:50:02;8.33;;;6.90;;
13816;SDS011;6979;52.116;5.286;2022-10-30T11:52:34;8.73;;;6.27;;
13816;SDS011;6979;52.116;5.286;2022-10-30T11:55:07;6.77;;;6.03;;
13816;SDS011;6979;52.116;5.286;2022-10-30T11:57:40;7.17;;;6.10;;
13816;SDS011;6979;52.116;5.286;2022-10-30T12:00:13;9.17;;;6.23;;
13816;SDS011;6979;52.116;5.286;2022-10-30T12:02:44;7.87;;;6.43;;
13816;SDS011;6979;52.116;5.286;2022-10-30T12:05:28;10.20;;;6.30;;
13816;SDS011;6979;52.116;5.286;2022-10-30T12:10:43;8.10;;;6.17;;
13816;SDS011;6979;52.116;5.286;2022-10-30T12:13:12;8.00;;;6.60;;
13816;SDS011;6979;52.116;5.286;2022-10-30T12:15:42;7.67;;;6.60;;
13816;SDS011;6979;52.116;5.286;2022-10-30T12:18:16;8.90;;;6.27;;
13816;SDS011;6979;52.116;5.286;2022-10-30T12:20:47;12.17;;;6.13;;
13816;SDS011;6979;52.116;5.286;2022-10-30T12:23:23;8.43;;;6.93;;
13816;SDS011;6979;52.116;5.286;2022-10-30T12:25:54;9.30;;;7.27;;
13816;SDS011;6979;52.116;5.286;2022-10-30T12:28:24;7.70;;;6.53;;
13816;SDS011;6979;52.116;5.286;2022-10-30T12:30:53;6.27;;;5.43;;
13816;SDS011;6979;52.116;5.286;2022-10-30T12:33:26;8.80;;;6.63;;
13816;SDS011;6979;52.116;5.286;2022-10-30T12:35:58;6.67;;;6.07;;
13816;SDS011;6979;52.116;5.286;2022-10-30T12:38:26;7.67;;;6.50;;
13816;SDS011;6979;52.116;5.286;2022-10-30T12:41:01;7.37;;;6.07;;
13816;SDS011;6979;52.116;5.286;2022-10-30T12:43:35;9.03;;;6.33;;
13816;SDS011;6979;52.116;5.286;2022-10-30T12:46:05;7.37;;;6.63;;
13816;SDS011;6979;52.116;5.286;2022-10-30T12:48:55;9.33;;;7.33;;
13816;SDS011;6979;52.116;5.286;2022-10-30T12:51:29;7.17;;;6.27;;
13816;SDS011;6979;52.116;5.286;2022-10-30T12:54:01;6.77;;;5.73;;
13816;SDS011;6979;52.116;5.286;2022-10-30T12:56:40;8.63;;;6.90;;
13816;SDS011;6979;52.116;5.286;2022-10-30T12:59:19;13.50;;;10.37;;
13816;SDS011;6979;52.116;5.286;2022-10-30T13:01:56;12.23;;;8.20;;
13816;SDS011;6979;52.116;5.286;2022-10-30T13:04:27;9.63;;;6.83;;
13816;SDS011;6979;52.116;5.286;2022-10-30T13:07:02;7.33;;;6.63;;
13816;SDS011;6979;52.116;5.286;2022-10-30T13:09:36;8.77;;;6.90;;
13816;SDS011;6979;52.116;5.286;2022-10-30T13:12:07;6.67;;;6.03;;
13816;SDS011;6979;52.116;5.286;2022-10-30T13:14:39;7.27;;;6.57;;
13816;SDS011;6979;52.116;5.286;2022-10-30T13:17:11;6.97;;;5.87;;
13816;SDS011;6979;52.116;5.286;2022-10-30T13:19:41;7.60;;;6.63;;
13816;SDS011;6979;52.116;5.286;2022-10-30T13:22:11;7.50;;;6.80;;
13816;SDS011;6979;52.116;5.286;2022-10-30T13:24:46;7.43;;;6.73;;
13816;SDS011;6979;52.116;5.286;2022-10-30T13:27:23;8.33;;;6.93;;
13816;SDS011;6979;52.116;5.286;2022-10-30T13:29:57;7.87;;;6.30;;
13816;SDS011;6979;52.116;5.286;2022-10-30T13:32:31;6.97;;;6.20;;
13816;SDS011;6979;52.116;5.286;2022-10-30T13:35:15;8.17;;;6.50;;
13816;SDS011;6979;52.116;5.286;2022-10-30T13:37:53;7.13;;;6.43;;
13816;SDS011;6979;52.116;5.286;2022-10-30T13:40:29;9.97;;;7.07;;
13816;SDS011;6979;52.116;5.286;2022-10-30T13:43:04;7.30;;;6.60;;
13816;SDS011;6979;52.116;5.286;2022-10-30T13:48:48;9.13;;;7.63;;
13816;SDS011;6979;52.116;5.286;2022-10-30T13:51:28;7.20;;;6.47;;
13816;SDS011;6979;52.116;5.286;2022-10-30T13:54:02;8.30;;;7.47;;
13816;SDS011;6979;52.116;5.286;2022-10-30T13:56:33;7.83;;;7.07;;
13816;SDS011;6979;52.116;5.286;2022-10-30T13:59:04;12.03;;;8.30;;
13816;SDS011;6979;52.116;5.286;2022-10-30T14:01:38;9.33;;;7.97;;
13816;SDS011;6979;52.116;5.286;2022-10-30T14:04:14;7.67;;;6.77;;
13816;SDS011;6979;52.116;5.286;2022-10-30T14:06:46;9.87;;;7.17;;
13816;SDS011;6979;52.116;5.286;2022-10-30T14:09:20;7.33;;;6.33;;
13816;SDS011;6979;52.116;5.286;2022-10-30T14:11:53;8.73;;;6.93;;
13816;SDS011;6979;52.116;5.286;2022-10-30T14:14:24;8.30;;;7.43;;
13816;SDS011;6979;52.116;5.286;2022-10-30T14:17:07;8.13;;;7.30;;
13816;SDS011;6979;52.116;5.286;2022-10-30T14:23:11;7.87;;;7.17;;
13816;SDS011;6979;52.116;5.286;2022-10-30T14:25:39;8.53;;;7.73;;
13816;SDS011;6979;52.116;5.286;2022-10-30T14:28:16;10.37;;;8.93;;
13816;SDS011;6979;52.116;5.286;2022-10-30T14:30:45;11.67;;;8.87;;
13816;SDS011;6979;52.116;5.286;2022-10-30T14:39:27;9.57;;;7.50;;
13816;SDS011;6979;52.116;5.286;2022-10-30T14:41:59;11.60;;;8.97;;
13816;SDS011;6979;52.116;5.286;2022-10-30T14:44:36;11.83;;;9.47;;
13816;SDS011;6979;52.116;5.286;2022-10-30T14:50:29;8.97;;;7.00;;
13816;SDS011;6979;52.116;5.286;2022-10-30T14:56:03;8.30;;;6.47;;
13816;SDS011;6979;52.116;5.286;2022-10-30T14:58:34;8.37;;;7.50;;
13816;SDS011;6979;52.116;5.286;2022-10-30T15:01:19;8.33;;;7.30;;
13816;SDS011;6979;52.116;5.286;2022-10-30T15:03:53;7.27;;;6.47;;
13816;SDS011;6979;52.116;5.286;2022-10-30T15:06:30;7.97;;;7.17;;
13816;SDS011;6979;52.116;5.286;2022-10-30T15:09:09;8.90;;;7.47;;
13816;SDS011;6979;52.116;5.286;2022-10-30T15:11:53;8.23;;;7.40;;
13816;SDS011;6979;52.116;5.286;2022-10-30T15:14:33;9.93;;;7.47;;
13816;SDS011;6979;52.116;5.286;2022-10-30T15:17:03;8.47;;;7.20;;
13816;SDS011;6979;52.116;5.286;2022-10-30T15:19:30;9.97;;;7.73;;
13816;SDS011;6979;52.116;5.286;2022-10-30T15:21:59;9.10;;;8.13;;
13816;SDS011;6979;52.116;5.286;2022-10-30T15:24:26;8.20;;;7.13;;
13816;SDS011;6979;52.116;5.286;2022-10-30T15:26:58;9.77;;;8.87;;
13816;SDS011;6979;52.116;5.286;2022-10-30T15:29:29;8.87;;;7.10;;
13816;SDS011;6979;52.116;5.286;2022-10-30T15:31:59;11.40;;;7.87;;
13816;SDS011;6979;52.116;5.286;2022-10-30T15:34:27;10.40;;;8.10;;
13816;SDS011;6979;52.116;5.286;2022-10-30T15:36:55;10.93;;;8.40;;
13816;SDS011;6979;52.116;5.286;2022-10-30T15:39:25;9.43;;;8.13;;
13816;SDS011;6979;52.116;5.286;2022-10-30T15:41:52;9.93;;;8.40;;
13816;SDS011;6979;52.116;5.286;2022-10-30T15:44:24;15.47;;;9.20;;
13816;SDS011;6979;52.116;5.286;2022-10-30T15:46:54;9.20;;;8.33;;
13816;SDS011;6979;52.116;5.286;2022-10-30T15:49:26;12.87;;;8.63;;
13816;SDS011;6979;52.116;5.286;2022-10-30T15:51:55;8.87;;;7.67;;
13816;SDS011;6979;52.116;5.286;2022-10-30T15:54:23;8.43;;;7.57;;
13816;SDS011;6979;52.116;5.286;2022-10-30T15:56:52;9.67;;;7.53;;